createdAt,value
2022-12-03T00:03:16.177Z,48.61
2022-12-03T00:08:19.716Z,48.63
2022-12-03T00:13:24.506Z,48.91
2022-12-03T00:18:28.035Z,48.66
2022-12-03T00:23:31.428Z,48.59
2022-12-03T00:28:36.240Z,48.47
2022-12-03T00:33:39.615Z,48.68
2022-12-03T00:38:42.998Z,48.63
2022-12-03T00:43:47.805Z,48.33
2022-12-03T00:48:51.218Z,48.60
2022-12-03T00:53:54.661Z,48.77
2022-12-03T00:58:59.452Z,49.59
2022-12-03T01:04:02.829Z,49.62
2022-12-03T01:09:18.273Z,50.21
2022-12-03T01:14:23.102Z,49.53
2022-12-03T01:19:26.500Z,49.51
2022-12-03T01:24:29.864Z,50.19
2022-12-03T01:29:34.707Z,50.40
2022-12-03T01:34:38.193Z,50.18
2022-12-03T01:39:41.739Z,49.86
2022-12-03T01:44:46.951Z,50.49
2022-12-03T01:49:53.379Z,50.58
2022-12-03T01:54:58.686Z,50.75
2022-12-03T02:00:03.603Z,50.77
2022-12-03T02:05:17.073Z,51.00
2022-12-03T02:10:23.714Z,51.56
2022-12-03T02:15:28.493Z,51.15
2022-12-03T02:20:32.488Z,51.02
2022-12-03T02:25:38.024Z,51.20
2022-12-03T02:30:41.496Z,51.20
2022-12-03T02:35:45.312Z,50.81
2022-12-03T02:40:51.457Z,51.14
2022-12-03T02:45:56.276Z,50.96
2022-12-03T02:51:02.669Z,50.53
2022-12-03T02:56:08.380Z,51.40
2022-12-03T03:01:11.880Z,51.02
2022-12-03T03:06:16.033Z,50.76
2022-12-03T03:11:20.931Z,50.27
2022-12-03T03:16:24.442Z,50.12
2022-12-03T03:21:28.025Z,50.65
2022-12-03T03:26:32.838Z,50.55
2022-12-03T03:31:36.409Z,50.45
2022-12-03T03:36:40.224Z,50.24
2022-12-03T03:41:46.837Z,50.25
2022-12-03T03:46:50.244Z,49.34
2022-12-03T03:51:53.768Z,48.99
2022-12-03T03:56:58.701Z,48.75
2022-12-03T04:02:02.086Z,48.87
2022-12-03T04:07:05.495Z,48.80
2022-12-03T04:12:27.969Z,48.58
2022-12-03T04:17:31.356Z,49.24
2022-12-03T04:22:40.684Z,48.90
2022-12-03T04:28:03.208Z,49.16
2022-12-03T04:33:24.283Z,48.83
2022-12-03T04:38:27.753Z,48.61
2022-12-03T04:43:55.738Z,48.97
2022-12-03T04:48:59.133Z,48.50
2022-12-03T04:54:02.698Z,48.69
2022-12-03T04:59:11.436Z,49.10
2022-12-03T05:04:19.242Z,49.02
2022-12-03T05:09:22.685Z,48.61
2022-12-03T05:14:27.475Z,48.45
2022-12-03T05:19:44.745Z,48.84
2022-12-03T05:24:48.193Z,49.47
2022-12-03T05:29:53.440Z,49.32
2022-12-03T05:34:57.019Z,49.45
2022-12-03T05:40:01.116Z,49.45
2022-12-03T05:45:07.102Z,49.29
2022-12-03T05:50:10.853Z,48.97
2022-12-03T05:55:14.521Z,49.31
2022-12-03T06:00:21.294Z,49.15
2022-12-03T06:05:25.069Z,49.23
2022-12-03T06:10:28.777Z,48.89
2022-12-03T06:15:36.308Z,48.69
2022-12-03T06:20:43.834Z,48.97
2022-12-03T06:25:47.273Z,48.92
2022-12-03T06:30:52.209Z,49.16
2022-12-03T06:35:55.641Z,49.08
2022-12-03T06:40:59.109Z,48.50
2022-12-03T06:46:03.982Z,48.29
2022-12-03T06:51:07.463Z,48.29
2022-12-03T06:56:10.897Z,47.86
2022-12-03T07:01:15.790Z,47.30
2022-12-03T07:06:19.269Z,47.75
2022-12-03T07:11:40.044Z,48.14
2022-12-03T07:16:44.820Z,48.55
2022-12-03T07:21:48.222Z,47.65
2022-12-03T07:26:51.651Z,47.86
2022-12-03T07:31:56.533Z,47.69
2022-12-03T07:36:59.933Z,48.04
2022-12-03T07:42:03.392Z,47.95
2022-12-03T07:47:08.339Z,47.64
2022-12-03T07:52:11.973Z,47.80
2022-12-03T07:57:15.466Z,48.10
2022-12-03T08:02:21.764Z,48.69
2022-12-03T08:07:25.572Z,48.21
2022-12-03T08:12:40.027Z,49.18
2022-12-03T08:17:46.118Z,49.36
2022-12-03T08:22:51.820Z,49.04
2022-12-03T08:27:57.853Z,48.96
2022-12-03T08:33:03.085Z,48.67
2022-12-03T08:38:11.109Z,48.60
2022-12-03T08:43:19.413Z,48.31
2022-12-03T08:48:28.030Z,47.84
2022-12-03T08:53:34.290Z,48.23
2022-12-03T08:58:39.977Z,48.91
2022-12-03T09:03:49.104Z,49.42
2022-12-03T09:08:52.624Z,49.02
2022-12-03T09:13:56.084Z,49.08
2022-12-03T09:19:00.967Z,49.61
2022-12-03T09:24:04.542Z,48.68
2022-12-03T09:29:12.101Z,48.02
2022-12-03T09:34:17.649Z,47.83
2022-12-03T09:39:21.065Z,48.11
2022-12-03T09:44:24.499Z,47.85
2022-12-03T09:49:31.849Z,48.08
2022-12-03T09:54:37.084Z,48.26
2022-12-03T09:59:42.951Z,47.64
2022-12-03T10:04:47.935Z,48.18
2022-12-03T10:09:51.849Z,47.60
2022-12-03T10:14:56.825Z,47.76
2022-12-03T10:20:02.470Z,47.52
2022-12-03T10:25:08.854Z,47.21
2022-12-03T10:30:17.707Z,47.31
2022-12-03T10:35:24.086Z,47.47
2022-12-03T10:40:31.706Z,47.05
2022-12-03T10:45:35.123Z,46.59
2022-12-03T10:50:47.990Z,47.04
2022-12-03T10:55:52.541Z,46.53
2022-12-03T11:00:57.525Z,46.86
2022-12-03T11:06:02.837Z,46.41
2022-12-03T11:11:08.179Z,46.02
2022-12-03T11:16:11.769Z,45.97
2022-12-03T11:21:16.733Z,45.80
2022-12-03T11:26:52.201Z,45.58
2022-12-03T11:31:55.613Z,45.97
2022-12-03T11:37:28.960Z,45.18
2022-12-03T11:42:40.025Z,44.67
2022-12-03T11:47:45.720Z,45.42
2022-12-03T11:52:55.153Z,45.46
2022-12-03T11:57:59.816Z,45.54
2022-12-03T12:03:03.438Z,45.94
2022-12-03T12:08:19.893Z,45.38
2022-12-03T12:13:27.987Z,45.11
2022-12-03T12:18:38.298Z,45.42
2022-12-03T12:23:43.144Z,45.13
2022-12-03T12:28:46.534Z,44.97
2022-12-03T12:33:49.989Z,44.67
2022-12-03T12:38:54.824Z,45.19
2022-12-03T12:43:58.404Z,45.55
2022-12-03T12:49:02.031Z,45.21
2022-12-03T12:54:11.262Z,45.38
2022-12-03T12:59:17.910Z,46.13
2022-12-03T13:04:23.152Z,45.89
2022-12-03T13:09:28.218Z,45.24
2022-12-03T13:14:33.208Z,45.71
2022-12-03T13:19:46.645Z,45.95
2022-12-03T13:24:55.972Z,45.62
2022-12-03T13:30:01.472Z,45.40
2022-12-03T13:35:07.318Z,45.07
2022-12-03T13:40:22.005Z,45.98
2022-12-03T13:45:34.788Z,45.51
2022-12-03T13:50:40.758Z,45.68
2022-12-03T13:55:47.785Z,45.65
2022-12-03T14:00:51.339Z,45.30
2022-12-03T14:05:54.763Z,45.17
2022-12-03T14:11:00.834Z,45.81
2022-12-03T14:16:04.913Z,45.47
2022-12-03T14:21:08.398Z,45.91
2022-12-03T14:26:13.154Z,45.75
2022-12-03T14:31:16.668Z,45.40
2022-12-03T14:36:20.086Z,45.73
2022-12-03T14:41:42.510Z,45.63
2022-12-03T14:46:45.964Z,45.63
2022-12-03T14:51:49.431Z,45.70
2022-12-03T14:56:54.257Z,45.71
2022-12-03T15:01:57.804Z,46.47
2022-12-03T15:07:01.433Z,46.21
2022-12-03T15:12:07.019Z,46.17
2022-12-03T15:17:10.505Z,45.92
2022-12-03T15:22:14.028Z,46.36
2022-12-03T15:27:18.789Z,46.71
2022-12-03T15:32:22.204Z,46.85
2022-12-03T15:37:27.576Z,46.53
2022-12-03T15:42:32.465Z,46.41
2022-12-03T15:47:35.894Z,46.32
2022-12-03T15:52:39.274Z,46.06
2022-12-03T15:57:44.384Z,46.60
2022-12-03T16:02:52.695Z,46.32
2022-12-03T16:07:56.643Z,46.29
2022-12-03T16:13:01.557Z,46.42
2022-12-03T16:18:05.296Z,46.80
2022-12-03T16:23:08.702Z,46.89
2022-12-03T16:28:13.489Z,47.07
2022-12-03T16:33:17.740Z,47.09
2022-12-03T16:38:23.549Z,46.54
2022-12-03T16:43:28.382Z,46.65
2022-12-03T16:48:31.844Z,46.68
2022-12-03T16:53:35.326Z,46.80
2022-12-03T16:58:40.181Z,46.62
2022-12-03T17:03:43.529Z,47.21
2022-12-03T17:08:49.716Z,46.88
2022-12-03T17:13:55.013Z,46.98
2022-12-03T17:18:58.405Z,46.96
2022-12-03T17:24:01.821Z,46.65
2022-12-03T17:29:06.553Z,46.43
2022-12-03T17:34:10.000Z,45.89
2022-12-03T17:39:13.557Z,46.40
2022-12-03T17:44:21.146Z,46.55
2022-12-03T17:49:31.147Z,46.43
2022-12-03T17:55:01.761Z,46.78
2022-12-03T18:00:02.567Z,46.77
2022-12-03T18:05:15.634Z,47.16
2022-12-03T18:10:19.134Z,46.93
2022-12-03T18:15:24.031Z,46.86
2022-12-03T18:20:27.594Z,46.77
2022-12-03T18:25:31.268Z,46.80
2022-12-03T18:30:36.120Z,46.51
2022-12-03T18:35:39.559Z,46.37
2022-12-03T18:40:43.926Z,47.04
2022-12-03T18:45:48.799Z,47.27
2022-12-03T18:50:52.374Z,47.25
2022-12-03T18:55:56.548Z,47.36
2022-12-03T19:01:01.608Z,47.28
2022-12-03T19:06:05.550Z,47.01
2022-12-03T19:11:09.760Z,47.47
2022-12-03T19:16:17.265Z,47.21
2022-12-03T19:21:20.969Z,46.79
2022-12-03T19:26:25.681Z,46.99
2022-12-03T19:31:33.296Z,47.20
2022-12-03T19:36:36.839Z,47.27
2022-12-03T19:41:41.800Z,47.48
2022-12-03T19:46:46.770Z,47.70
2022-12-03T19:51:50.324Z,47.70
2022-12-03T19:56:53.794Z,47.53
2022-12-03T20:01:58.692Z,47.79
2022-12-03T20:07:02.213Z,47.77
2022-12-03T20:12:05.844Z,48.25
2022-12-03T20:17:10.841Z,47.72
2022-12-03T20:22:14.251Z,47.39
2022-12-03T20:27:22.650Z,47.65
2022-12-03T20:32:27.977Z,47.40
2022-12-03T20:37:32.139Z,47.74
2022-12-03T20:42:35.472Z,48.30
2022-12-03T20:47:40.214Z,47.82
2022-12-03T20:53:03.268Z,47.75
2022-12-03T20:58:07.039Z,47.94
2022-12-03T21:03:11.858Z,47.73
2022-12-03T21:08:16.960Z,47.89
2022-12-03T21:13:32.274Z,47.94
2022-12-03T21:18:37.439Z,48.80
2022-12-03T21:23:41.256Z,48.87
2022-12-03T21:28:46.305Z,48.96
2022-12-03T21:33:51.181Z,48.66
2022-12-03T21:38:54.582Z,48.80
2022-12-03T21:43:58.235Z,48.64
2022-12-03T21:49:03.037Z,48.69
2022-12-03T21:54:06.754Z,49.00
2022-12-03T21:59:10.237Z,48.85
2022-12-03T22:04:15.070Z,48.76
2022-12-03T22:09:21.813Z,48.66
2022-12-03T22:14:29.766Z,48.68
2022-12-03T22:19:34.556Z,48.51
2022-12-03T22:24:38.576Z,48.79
2022-12-03T22:29:42.120Z,49.02
2022-12-03T22:34:46.943Z,48.61
2022-12-03T22:39:50.316Z,48.25
2022-12-03T22:44:53.713Z,48.33
2022-12-03T22:49:58.517Z,48.93
2022-12-03T22:55:01.900Z,49.17
2022-12-03T23:00:09.851Z,48.99
2022-12-03T23:05:14.711Z,49.15
2022-12-03T23:10:18.362Z,48.94
2022-12-03T23:15:21.765Z,49.53
2022-12-03T23:20:26.963Z,49.99
2022-12-03T23:25:30.394Z,49.50
2022-12-03T23:30:36.139Z,49.73
2022-12-03T23:35:41.083Z,50.10
2022-12-03T23:40:48.054Z,50.22
2022-12-03T23:45:51.881Z,50.05
2022-12-03T23:50:56.739Z,49.96
2022-12-03T23:56:00.116Z,49.74
